Kaprifol — 5BXX2 — position and weather

sailwx.info

Track history (hours):
 
Tides and Currents Weather Stations Pressure Air Temp Water Temp Dewpoint Dewpoint Depression Visibility Wind Speed Wind Dir Waves Ship Positions

Kaprifol

Last reported at 2016-May-31 19:33 UTC. Time now 2016-May-31 19:57 UTC.
Position N 51°29' E 003°30'.

Length 90 m; draft 5.3 m.

Type: Tanker. MMSI: 210445000.

Date/timePositionNaut miles runAvg speedWind from/ knotsBaromVisibWave heightAir tempDewpointWater temp
2016-May-31 19:33N 51°29' E 003°30'1010.4
2016-May-31 18:33N 51°37' E 003°21'8 8.4
2016-May-31 17:33N 51°46' E 003°17'346 9.1
2016-May-30 03:32N 57°30' E 004°13'2310.6
2016-May-30 01:23N 57°53' E 004°10'910.6
2016-May-30 00:33N 58°01' E 004°08'1110.6
2016-May-29 23:33N 58°12' E 004°07'1110.9
2016-May-29 22:33N 58°23' E 004°06'1111.3
2016-May-29 21:33N 58°34' E 004°05'1110.7
2016-May-29 20:33N 58°45' E 004°04'1110.7
2016-May-29 19:33N 58°56' E 004°02'1110.7
2016-May-29 18:33N 59°06' E 004°03'1110.9
2016-May-29 17:33N 59°17' E 004°03'1110.8
2016-May-29 16:33N 59°28' E 004°02'1110.8
2016-May-29 15:33N 59°39' E 004°02'1110.6
2016-May-29 14:33N 59°49' E 004°02'1010.4
2016-May-29 13:33N 59°60' E 004°02'1110.5
2016-May-29 12:33N 60°10' E 004°02'1110.7
2016-May-29 11:33N 60°21' E 004°03'1110.8
2016-May-29 10:33N 60°32' E 004°04'1111.0
2016-May-29 09:33N 60°43' E 004°05'1111.0
2016-May-29 08:33N 60°54' E 004°05'1210.8
2016-May-29 07:28N 61°05' E 004°05'1010.6
2016-May-29 06:33N 61°15' E 004°04'1010.4
2016-May-29 05:33N 61°26' E 004°05'1110.7
2016-May-29 04:32N 61°36' E 004°05'8 8.2
2016-May-29 03:33N 61°42' E 004°18'10 0.8
2016-May-28 15:05N 61°47' E 004°35'159 5.1
2016-May-27 08:04N 63°29' E 008°60'611.9
2016-May-27 07:33N 63°32' E 009°12'1211.6
2016-May-27 06:33N 63°38' E 009°34'9 9.1
2016-May-27 05:33N 63°33' E 009°52'9 9.4
2016-May-27 04:33N 63°30' E 010°12'1211.5
2016-May-27 03:33N 63°37' E 010°34'1211.7
2016-May-27 02:33N 63°44' E 010°55'7 0.5
2016-May-26 11:32N 63°50' E 011°04'1110.9
2016-May-26 10:34N 63°41' E 010°50'1111.1
2016-May-26 09:33N 63°35' E 010°29'1111.0
2016-May-26 08:33N 63°29' E 010°08'17 8.4
2016-May-26 06:34N 63°38' E 009°36'1010.3
2016-May-26 05:33N 63°32' E 009°16'  
2016-May-24 01:23N 59°46' E 004°48'7 6.0
2016-May-24 00:17N 59°40' E 004°51'5 6.1
2016-May-23 23:28N 59°35' E 004°52'6 6.1
2016-May-23 22:33N 59°30' E 004°55'6 5.6
2016-May-23 21:31N 59°24' E 004°58'5 5.6
2016-May-23 20:33N 59°19' E 004°60'6 5.7
2016-May-23 19:34N 59°13' E 005°02'7 6.7
2016-May-23 18:33N 59°07' E 005°08'9 9.4
2016-May-23 17:34N 59°07' E 005°27'9 9.0
2016-May-23 16:34N 59°01' E 005°41'4 3.7
2016-May-23 15:34N 58°58' E 005°45'0 0.0
2016-May-23 14:31N 58°58' E 005°45'0 0.0
2016-May-23 13:19N 58°58' E 005°45'0 0.0
2016-May-23 12:28N 58°58' E 005°45'0 0.0
2016-May-23 11:19N 58°58' E 005°45'0 0.0
2016-May-23 10:28N 58°58' E 005°45'0 0.0
2016-May-23 09:31N 58°58' E 005°45'0 0.0
2016-May-23 08:28N 58°58' E 005°45'0 0.0
2016-May-23 07:28N 58°58' E 005°45'2 1.9
2016-May-23 06:33N 58°59' E 005°48'8 8.1
2016-May-23 05:33N 59°02' E 005°33'1010.4
2016-May-23 04:33N 58°52' E 005°31'1010.3
2016-May-23 03:33N 58°48' E 005°13'8 8.1
2016-May-23 02:33N 58°42' E 005°03'10 9.8
2016-May-23 01:33N 58°32' E 005°03'25410.9
2016-May-22 02:12N 54°19' E 005°08'811.1
2016-May-22 01:29N 54°10' E 005°08'1010.8
2016-May-22 00:33N 54°01' E 005°04'1110.9
2016-May-21 23:33N 53°51' E 004°58'  
Track history (hours):
 
Tides and Currents Weather Stations Pressure Air Temp Water Temp Dewpoint Dewpoint Depression Visibility Wind Speed Wind Dir Waves Ship Positions

Kaprifol

Last reported at 2016-May-31 19:33 UTC. Time now 2016-May-31 19:57 UTC.
Position N 51°29' E 003°30'.

Length 90 m; draft 5.3 m.

Type: Tanker. MMSI: 210445000.

Date/timePositionNaut miles runAvg speedWind from/ knotsBaromVisibWave heightAir tempDewpointWater temp
2016-May-31 19:33N 51°29' E 003°30'1010.4
2016-May-31 18:33N 51°37' E 003°21'8 8.4
2016-May-31 17:33N 51°46' E 003°17'346 9.1
2016-May-30 03:32N 57°30' E 004°13'2310.6
2016-May-30 01:23N 57°53' E 004°10'910.6
2016-May-30 00:33N 58°01' E 004°08'1110.6
2016-May-29 23:33N 58°12' E 004°07'1110.9
2016-May-29 22:33N 58°23' E 004°06'1111.3
2016-May-29 21:33N 58°34' E 004°05'1110.7
2016-May-29 20:33N 58°45' E 004°04'1110.7
2016-May-29 19:33N 58°56' E 004°02'1110.7
2016-May-29 18:33N 59°06' E 004°03'1110.9
2016-May-29 17:33N 59°17' E 004°03'1110.8
2016-May-29 16:33N 59°28' E 004°02'1110.8
2016-May-29 15:33N 59°39' E 004°02'1110.6
2016-May-29 14:33N 59°49' E 004°02'1010.4
2016-May-29 13:33N 59°60' E 004°02'1110.5
2016-May-29 12:33N 60°10' E 004°02'1110.7
2016-May-29 11:33N 60°21' E 004°03'1110.8
2016-May-29 10:33N 60°32' E 004°04'1111.0
2016-May-29 09:33N 60°43' E 004°05'1111.0
2016-May-29 08:33N 60°54' E 004°05'1210.8
2016-May-29 07:28N 61°05' E 004°05'1010.6
2016-May-29 06:33N 61°15' E 004°04'1010.4
2016-May-29 05:33N 61°26' E 004°05'1110.7
2016-May-29 04:32N 61°36' E 004°05'8 8.2
2016-May-29 03:33N 61°42' E 004°18'10 0.8
2016-May-28 15:05N 61°47' E 004°35'159 5.1
2016-May-27 08:04N 63°29' E 008°60'611.9
2016-May-27 07:33N 63°32' E 009°12'1211.6
2016-May-27 06:33N 63°38' E 009°34'9 9.1
2016-May-27 05:33N 63°33' E 009°52'9 9.4
2016-May-27 04:33N 63°30' E 010°12'1211.5
2016-May-27 03:33N 63°37' E 010°34'1211.7
2016-May-27 02:33N 63°44' E 010°55'7 0.5
2016-May-26 11:32N 63°50' E 011°04'1110.9
2016-May-26 10:34N 63°41' E 010°50'1111.1
2016-May-26 09:33N 63°35' E 010°29'1111.0
2016-May-26 08:33N 63°29' E 010°08'17 8.4
2016-May-26 06:34N 63°38' E 009°36'1010.3
2016-May-26 05:33N 63°32' E 009°16'  
2016-May-24 01:23N 59°46' E 004°48'7 6.0
2016-May-24 00:17N 59°40' E 004°51'5 6.1
2016-May-23 23:28N 59°35' E 004°52'6 6.1
2016-May-23 22:33N 59°30' E 004°55'6 5.6
2016-May-23 21:31N 59°24' E 004°58'5 5.6
2016-May-23 20:33N 59°19' E 004°60'6 5.7
2016-May-23 19:34N 59°13' E 005°02'7 6.7
2016-May-23 18:33N 59°07' E 005°08'9 9.4
2016-May-23 17:34N 59°07' E 005°27'9 9.0
2016-May-23 16:34N 59°01' E 005°41'4 3.7
2016-May-23 15:34N 58°58' E 005°45'0 0.0
2016-May-23 14:31N 58°58' E 005°45'0 0.0
2016-May-23 13:19N 58°58' E 005°45'0 0.0
2016-May-23 12:28N 58°58' E 005°45'0 0.0
2016-May-23 11:19N 58°58' E 005°45'0 0.0
2016-May-23 10:28N 58°58' E 005°45'0 0.0
2016-May-23 09:31N 58°58' E 005°45'0 0.0
2016-May-23 08:28N 58°58' E 005°45'0 0.0
2016-May-23 07:28N 58°58' E 005°45'2 1.9
2016-May-23 06:33N 58°59' E 005°48'8 8.1
2016-May-23 05:33N 59°02' E 005°33'1010.4
2016-May-23 04:33N 58°52' E 005°31'1010.3
2016-May-23 03:33N 58°48' E 005°13'8 8.1
2016-May-23 02:33N 58°42' E 005°03'10 9.8
2016-May-23 01:33N 58°32' E 005°03'25410.9
2016-May-22 02:12N 54°19' E 005°08'811.1
2016-May-22 01:29N 54°10' E 005°08'1010.8
2016-May-22 00:33N 54°01' E 005°04'1110.9
2016-May-21 23:33N 53°51' E 004°58'  

Dump ship's entire track history